Aérodrome :
LOGIN :

S'inscrire | Disclaimer

   EN    FR    IT 

 










Légende :    VFR   VFR Marginal   IFR   IFR Intensif   IFR Très Intensif
Visi : 
Plafond : 
>= 8 km
>= 3000ft
5 à 8 km
1000 à 3000 ft
1500m à 5 km
500 à 1000 ft
800 à 1500m
200 à 500 ft
< 800m
< 200 ft
Symboles :   Orages  Brouillard  Fortes neiges  Fortes précipitations  Vent > 20 kt
SIGMETs :   Divers  Orages  Givrage  Turbulence  Onde Orograph.  Cendres Volcan.






- Altitude de l'aérodrome : 779 ft
- Code IATA : CMF


LFLB - Chambery / Aix-Les-Bains

DERNIER METAR :
  • 230730Z AUTO 36011KT CAVOK 15/11 Q1013 TEMPO 0400 FG

METARs EXPIRÉS :
  • 230700Z AUTO 01011KT CAVOK 14/11 Q1013 TEMPO 0400 FG
  • 230630Z AUTO 01014KT CAVOK 14/11 Q1013
  • 230600Z AUTO 36012KT CAVOK 14/11 Q1013
  • 230530Z AUTO 35011KT 9999 FEW023 14/11 Q1013
  • 230500Z AUTO 36013KT 9999 FEW021 14/11 Q1014

TAF TAF LFLB
Valide du 23 à 06h jusqu'au 24 à 06h UTC


230500Z 2306/2406 36008KT CAVOK
PROB40
TEMPO 2306/2309 0400 FG
BECMG 2309/2312 BKN025



MET'MAP, la Météo Aéronautique d'un coup d'oeil ! - Copyright ORBIFLY Décembre 2007 - Disclaimer

ORBIFLY MET'MAP TEAM :

Programmation & Développement : Alexandra Zaïnal
Conception & Développement : Baudouin d'Aumeries
Co-Programmation & Développement : Marc-Olivier Méhu
Soutien technique & logistique : Manuel Goepfert

Contact : metmap@orbifly.com




SOURCES & CREDITS :

   NOAA